Aérodrome :
LOGIN :

S'inscrire | Disclaimer

   EN    FR    IT 

 










Légende :    VFR   VFR Marginal   IFR   IFR Intensif   IFR Très Intensif
Visi : 
Plafond : 
>= 8 km
>= 3000ft
5 à 8 km
1000 à 3000 ft
1500m à 5 km
500 à 1000 ft
800 à 1500m
200 à 500 ft
< 800m
< 200 ft
Symboles :   Orages  Brouillard  Fortes neiges  Fortes précipitations  Vent > 20 kt
SIGMETs :   Divers  Orages  Givrage  Turbulence  Onde Orograph.  Cendres Volcan.






- Altitude de l'aérodrome : 1273 ft
- Code IATA : LJU


LJLJ - Ljubljana

DERNIER METAR :
  • 241200Z 12009KT 8000 BKN030 11/04 Q1022 NOSIG

METARs EXPIRÉS :
  • 241130Z 17005KT 140V210 8000 BKN027 11/04 Q1023 NOSIG
  • 241100Z 11008KT 080V140 8000 BKN035 11/04 Q1023 NOSIG
  • 241030Z 13004KT 050V200 9999 SCT030 BKN040 11/04 Q1023 NOSIG
  • 241000Z VRB02KT 9999 BKN030 11/04 Q1022 NOSIG
  • 240930Z 25004KT 200V290 9999 FEW026 BKN120 11/04 Q1022 NOSIG

TAF TAF LJLJ
Valide du 24 à 12h jusqu'au 25 à 12h UTC


241100Z 2412/2512 12005KT 9999 SCT035
TEMPO 2412/2506 BKN040
TEMPO 2412/2416 12010KT
BECMG 2417/2419 30003KT
BECMG 2506/2509 BKN040
BECMG 2509/2511 24005KT



MET'MAP, la Météo Aéronautique d'un coup d'oeil ! - Copyright ORBIFLY Décembre 2007 - Disclaimer

ORBIFLY MET'MAP TEAM :

Programmation & Développement : Alexandra Zaïnal
Sur une idée originale de : Baudouin d'Aumeries
Assistance à la programmation : Marc-Olivier Méhu
Soutien technique & logistique : Manuel Goepfert

Contact : metmap@orbifly.com




SOURCES & CREDITS :

   NOAA